Time;durP1;ratioP1;P1;durP2;ratioP2;P2;SDS_P1;SDS_P2;PMS_P1;PMS_P2;Temp;Humidity;BMP_temperature;BMP_pressure;BME280_temperature;BME280_humidity;BME280_pressure;Samples;Min_cycle;Max_cycle;Signal;HPM_P1;HPM_P2
2022/01/11 00:00:35;;;;;;;57.97;28.57;;;5.40;1.00;;;;;;5067346;28;20454;-61
2022/01/11 00:03:00;;;;;;;55.17;29.07;;;5.40;1.00;;;;;;5090785;28;20434;-62
2022/01/11 00:08:14;;;;;;;65.97;30.63;;;5.20;1.00;;;;;;5067795;28;20243;-61
2022/01/11 00:10:51;;;;;;;59.67;29.47;;;5.20;1.00;;;;;;5091851;28;20963;-61
2022/01/11 00:13:18;;;;;;;56.57;29.50;;;5.20;1.00;;;;;;5068934;28;20498;-61
2022/01/11 00:15:45;;;;;;;60.70;30.27;;;5.10;1.00;;;;;;5084187;28;20886;-61
2022/01/11 00:18:10;;;;;;;60.60;32.30;;;5.00;1.00;;;;;;5083898;28;20504;-61
2022/01/11 00:20:38;;;;;;;58.20;29.70;;;4.90;1.00;;;;;;5075048;28;20459;-61
2022/01/11 00:25:39;;;;;;;57.80;31.83;;;4.90;1.00;;;;;;5074602;28;20490;-62
2022/01/11 00:28:06;;;;;;;64.50;31.83;;;4.90;1.00;;;;;;5078988;28;20412;-62
2022/01/11 00:30:35;;;;;;;61.37;30.63;;;;;;;;;;5074934;28;20457;-61
2022/01/11 00:33:05;;;;;;;54.33;27.87;;;4.70;1.00;;;;;;5087543;28;20461;-62
2022/01/11 00:35:45;;;;;;;60.40;30.33;;;4.70;1.00;;;;;;5061935;28;20471;-61
2022/01/11 00:38:15;;;;;;;59.40;29.60;;;4.70;1.00;;;;;;5074795;28;20830;-61
2022/01/11 00:40:52;;;;;;;57.00;30.47;;;4.70;1.00;;;;;;5081073;28;20449;-61
2022/01/11 00:43:21;;;;;;;50.60;28.17;;;4.60;1.00;;;;;;5075462;28;20419;-62
2022/01/11 00:45:47;;;;;;;52.60;27.50;;;4.60;1.00;;;;;;5053984;28;20444;-61
2022/01/11 00:48:14;;;;;;;55.30;26.37;;;;;;;;;;5079618;28;20449;-61
2022/01/11 00:50:40;;;;;;;52.23;27.30;;;;;;;;;;5055276;28;20543;-62
2022/01/11 00:53:07;;;;;;;45.37;25.50;;;4.50;1.00;;;;;;5073255;28;20437;-62
2022/01/11 00:55:34;;;;;;;52.43;26.87;;;4.40;1.00;;;;;;5088950;28;20418;-62
2022/01/11 00:58:02;;;;;;;50.40;27.40;;;4.30;1.00;;;;;;5086286;28;20564;-62
2022/01/11 01:00:28;;;;;;;46.20;26.43;;;4.30;1.00;;;;;;5073229;28;20453;-63
2022/01/11 01:02:54;;;;;;;46.40;25.37;;;4.20;1.00;;;;;;5077395;28;20430;-62
2022/01/11 01:05:21;;;;;;;53.20;27.37;;;4.00;1.00;;;;;;5069673;28;20445;-61
2022/01/11 01:07:47;;;;;;;40.53;24.93;;;4.00;1.00;;;;;;5071608;28;20191;-61
2022/01/11 01:10:59;;;;;;;56.63;27.47;;;4.00;1.00;;;;;;5073498;28;20453;-61
2022/01/11 01:12:59;;;;;;;43.77;25.40;;;3.90;1.00;;;;;;5075975;28;20442;-62
2022/01/11 01:15:26;;;;;;;49.10;26.13;;;3.90;1.00;;;;;;5068828;28;20480;-62
2022/01/11 01:17:52;;;;;;;53.47;28.40;;;;;;;;;;5066489;28;20297;-62
2022/01/11 01:20:18;;;;;;;48.60;27.27;;;4.00;1.00;;;;;;5071366;28;22082;-62
2022/01/11 01:22:44;;;;;;;53.30;26.63;;;;;;;;;;5069128;28;20466;-62
2022/01/11 01:25:10;;;;;;;46.37;24.27;;;4.10;1.00;;;;;;5083343;28;20463;-62
2022/01/11 01:27:37;;;;;;;53.60;28.27;;;;;;;;;;5066180;28;20453;-61
2022/01/11 01:30:07;;;;;;;45.43;24.90;;;4.10;1.00;;;;;;5067205;28;20449;-61
2022/01/11 01:32:32;;;;;;;49.23;24.90;;;4.00;1.00;;;;;;5081339;28;20489;-62
2022/01/11 01:35:03;;;;;;;43.10;24.07;;;3.70;1.00;;;;;;5072685;28;20450;-61
2022/01/11 01:37:29;;;;;;;50.33;26.67;;;3.70;1.00;;;;;;5071801;28;20201;-62
2022/01/11 01:39:55;;;;;;;46.80;26.07;;;3.80;1.00;;;;;;5070194;28;20495;-62
2022/01/11 01:42:24;;;;;;;46.00;26.20;;;3.90;1.00;;;;;;5072390;28;20472;-62
2022/01/11 01:44:50;;;;;;;51.50;28.03;;;3.90;1.00;;;;;;5080717;28;20648;-63
2022/01/11 01:47:16;;;;;;;51.13;29.20;;;;;;;;;;5067430;28;20489;-62
2022/01/11 01:49:42;;;;;;;49.63;28.00;;;;;;;;;;5076749;28;20448;-61
2022/01/11 01:52:08;;;;;;;55.77;29.43;;;;;;;;;;5046916;28;20461;-61
2022/01/11 01:54:34;;;;;;;57.13;28.67;;;3.90;1.00;;;;;;5057310;28;20995;-61
2022/01/11 01:57:00;;;;;;;44.40;25.57;;;3.90;1.00;;;;;;5079038;28;20462;-61
2022/01/11 01:59:26;;;;;;;53.53;26.87;;;3.80;1.00;;;;;;5078045;28;20445;-61
2022/01/11 02:01:52;;;;;;;52.10;26.20;;;3.80;1.00;;;;;;5073954;28;20221;-62
2022/01/11 02:04:19;;;;;;;54.30;29.37;;;3.90;1.00;;;;;;5075216;28;20632;-62
2022/01/11 02:06:46;;;;;;;53.60;29.07;;;3.90;1.00;;;;;;5067275;28;20457;-61
2022/01/11 02:09:15;;;;;;;55.37;26.60;;;3.80;1.00;;;;;;5070074;28;20877;-62
2022/01/11 02:11:41;;;;;;;60.30;31.40;;;3.80;1.00;;;;;;5076502;28;20443;-61
2022/01/11 02:14:07;;;;;;;62.53;30.53;;;;;;;;;;5078024;28;21037;-62
2022/01/11 02:16:32;;;;;;;59.33;30.10;;;3.80;1.00;;;;;;5069764;28;20962;-62
2022/01/11 02:18:58;;;;;;;58.37;29.13;;;;;;;;;;5065571;28;20454;-62
2022/01/11 02:21:24;;;;;;;59.97;30.50;;;3.70;1.00;;;;;;5071702;28;20228;-61
2022/01/11 02:23:50;;;;;;;56.63;28.47;;;3.50;1.00;;;;;;5070994;28;20536;-61
2022/01/11 02:26:17;;;;;;;53.47;29.20;;;3.50;1.00;;;;;;5077659;28;20516;-61
2022/01/11 02:28:42;;;;;;;46.63;24.40;;;3.40;1.00;;;;;;5075304;28;20436;-61
2022/01/11 02:31:12;;;;;;;51.27;29.50;;;3.30;1.00;;;;;;5055787;28;20976;-62
2022/01/11 02:33:44;;;;;;;50.50;29.53;;;3.20;1.00;;;;;;5079722;28;20441;-61
2022/01/11 02:36:14;;;;;;;58.57;29.77;;;3.40;1.00;;;;;;5058227;28;20507;-60
2022/01/11 02:38:40;;;;;;;58.83;32.23;;;3.30;1.00;;;;;;5082184;28;20552;-61
2022/01/11 02:41:06;;;;;;;59.30;29.50;;;;;;;;;;5086086;28;20554;-61
2022/01/11 02:43:32;;;;;;;59.83;32.00;;;3.40;1.00;;;;;;5075658;28;20537;-62
2022/01/11 02:46:01;;;;;;;56.33;27.83;;;3.60;1.00;;;;;;5076659;28;21014;-62
2022/01/11 02:48:28;;;;;;;51.17;28.37;;;3.60;1.00;;;;;;5075771;28;20449;-60
2022/01/11 02:50:53;;;;;;;56.60;29.63;;;3.50;1.00;;;;;;5072448;28;20533;-61
2022/01/11 02:53:19;;;;;;;63.57;31.40;;;3.40;1.00;;;;;;5076166;28;20420;-61
2022/01/11 02:55:45;;;;;;;61.10;34.10;;;3.40;1.00;;;;;;5076980;28;20258;-62
2022/01/11 02:58:12;;;;;;;56.73;30.97;;;3.60;1.00;;;;;;5076739;28;20616;-62
2022/01/11 03:00:38;;;;;;;65.00;32.57;;;3.60;1.00;;;;;;5059141;28;20190;-60
2022/01/11 03:03:09;;;;;;;67.57;32.90;;;3.60;1.00;;;;;;5079905;28;20492;-61
2022/01/11 03:05:35;;;;;;;64.90;32.70;;;3.60;1.00;;;;;;5054866;28;20446;-62
2022/01/11 03:08:01;;;;;;;57.03;31.83;;;3.50;1.00;;;;;;5073007;28;22323;-61
2022/01/11 03:10:33;;;;;;;57.90;32.50;;;;;;;;;;5072223;28;20814;-62
2022/01/11 03:13:03;;;;;;;58.33;33.63;;;3.30;1.00;;;;;;5071655;28;20985;-61
2022/01/11 03:15:29;;;;;;;69.07;34.53;;;3.30;1.00;;;;;;5074625;28;20927;-61
2022/01/11 03:17:55;;;;;;;68.90;34.20;;;3.30;1.00;;;;;;5079894;28;20468;-61
2022/01/11 03:20:21;;;;;;;62.23;33.40;;;;;;;;;;5063940;28;20223;-62
2022/01/11 03:22:46;;;;;;;67.87;34.80;;;3.50;1.00;;;;;;5070115;28;20235;-62
2022/01/11 03:25:13;;;;;;;62.93;36.67;;;3.50;1.00;;;;;;5075209;28;20445;-61
2022/01/11 03:27:40;;;;;;;62.47;34.70;;;3.50;1.00;;;;;;5088805;28;20179;-62
2022/01/11 03:30:06;;;;;;;59.87;34.67;;;3.50;1.00;;;;;;5077010;28;21004;-61
2022/01/11 03:32:32;;;;;;;63.97;36.10;;;3.50;1.00;;;;;;5074617;28;20437;-62
2022/01/11 03:34:57;;;;;;;70.67;35.07;;;3.50;1.00;;;;;;5077755;28;20445;-61
2022/01/11 03:37:23;;;;;;;60.73;36.33;;;3.60;1.00;;;;;;5074309;28;20207;-61
2022/01/11 03:39:49;;;;;;;66.00;34.60;;;3.50;1.00;;;;;;5085341;28;20195;-61
2022/01/11 03:42:14;;;;;;;57.27;32.00;;;3.60;1.00;;;;;;5073873;28;20230;-61
2022/01/11 03:44:40;;;;;;;66.53;35.20;;;;;;;;;;5075997;28;20191;-61
2022/01/11 03:47:07;;;;;;;64.73;34.83;;;;;;;;;;5070601;28;20215;-61
2022/01/11 03:49:33;;;;;;;68.27;34.40;;;3.40;1.00;;;;;;5076860;28;20460;-61
2022/01/11 03:51:58;;;;;;;65.47;35.27;;;3.30;1.00;;;;;;5079285;28;20457;-61
2022/01/11 03:54:30;;;;;;;63.47;34.23;;;3.30;1.00;;;;;;5081950;28;20905;-61
2022/01/11 03:56:56;;;;;;;67.87;36.90;;;;;;;;;;5072181;28;20298;-61
2022/01/11 03:59:23;;;;;;;74.67;39.27;;;3.20;1.00;;;;;;5063858;28;20437;-61
2022/01/11 04:01:51;;;;;;;78.33;39.20;;;3.30;1.00;;;;;;5063617;28;20958;-61
2022/01/11 04:04:19;;;;;;;75.40;36.13;;;3.20;1.00;;;;;;5078470;28;20444;-61
2022/01/11 04:06:45;;;;;;;77.33;37.20;;;3.30;1.00;;;;;;5070987;28;20447;-61
2022/01/11 04:09:11;;;;;;;71.43;35.83;;;3.20;1.00;;;;;;5075394;28;20445;-62
2022/01/11 04:11:37;;;;;;;67.73;35.00;;;3.30;1.00;;;;;;5073426;28;20292;-61
2022/01/11 04:14:02;;;;;;;69.67;35.10;;;3.20;1.00;;;;;;5092593;28;21068;-61
2022/01/11 04:16:28;;;;;;;70.30;38.43;;;3.20;1.00;;;;;;5075007;28;20180;-61
2022/01/11 04:18:53;;;;;;;73.60;37.33;;;3.20;1.00;;;;;;5079182;28;20187;-61
2022/01/11 04:21:19;;;;;;;69.57;35.23;;;3.30;1.00;;;;;;5071748;28;20314;-61
2022/01/11 04:23:45;;;;;;;69.13;35.83;;;3.20;1.00;;;;;;5074781;28;20299;-62
2022/01/11 04:26:11;;;;;;;72.77;39.03;;;3.30;1.00;;;;;;5072346;28;20179;-61
2022/01/11 04:28:37;;;;;;;84.13;39.90;;;;;;;;;;5077982;28;20207;-62
2022/01/11 04:31:02;;;;;;;80.37;39.10;;;3.20;1.00;;;;;;5081550;28;20846;-62
2022/01/11 04:33:30;;;;;;;74.17;37.00;;;3.20;1.00;;;;;;5078471;28;20930;-61
2022/01/11 04:35:57;;;;;;;79.67;37.17;;;3.20;1.00;;;;;;5084479;28;20261;-60
2022/01/11 04:38:25;;;;;;;76.50;37.63;;;3.20;1.00;;;;;;5072842;28;20505;-61
2022/01/11 04:40:51;;;;;;;74.67;36.13;;;3.30;1.00;;;;;;5078120;28;20940;-61
2022/01/11 04:43:17;;;;;;;77.90;36.20;;;3.30;1.00;;;;;;5074547;28;20446;-61
2022/01/11 04:45:43;;;;;;;68.03;33.93;;;3.20;1.00;;;;;;5072133;28;20513;-60
2022/01/11 04:48:09;;;;;;;74.93;35.13;;;3.10;1.00;;;;;;5073958;28;20452;-61
2022/01/11 04:50:35;;;;;;;87.00;36.57;;;3.20;1.00;;;;;;5076310;28;21946;-61
2022/01/11 04:53:04;;;;;;;71.53;37.43;;;3.20;1.00;;;;;;5068344;28;20529;-61
2022/01/11 04:55:31;;;;;;;71.80;34.57;;;3.20;1.00;;;;;;5081164;28;20445;-61
2022/01/11 04:57:58;;;;;;;71.53;35.27;;;3.20;1.00;;;;;;5080778;28;20506;-60
2022/01/11 05:00:24;;;;;;;78.20;36.83;;;3.30;1.00;;;;;;5053580;28;20443;-61
2022/01/11 05:02:50;;;;;;;75.10;35.27;;;3.30;1.00;;;;;;5073517;28;20863;-62
2022/01/11 05:05:16;;;;;;;71.50;35.20;;;3.20;1.00;;;;;;5079815;28;20445;-62
2022/01/11 05:07:42;;;;;;;70.03;35.40;;;4.00;1.00;;;;;;5078087;28;20301;-61
2022/01/11 05:10:08;;;;;;;76.20;38.20;;;3.00;1.00;;;;;;5074820;28;20180;-60
2022/01/11 05:12:34;;;;;;;78.83;36.13;;;3.00;1.00;;;;;;5071810;28;20530;-60
2022/01/11 05:15:00;;;;;;;83.90;39.60;;;3.00;1.00;;;;;;5071950;28;20454;-60
2022/01/11 05:17:26;;;;;;;82.10;35.37;;;3.10;1.00;;;;;;5072139;28;20467;-61
2022/01/11 05:19:51;;;;;;;73.77;36.73;;;3.00;1.00;;;;;;5069684;28;20460;-61
2022/01/11 05:22:17;;;;;;;78.30;34.70;;;;;;;;;;5078095;28;20186;-61
2022/01/11 05:24:43;;;;;;;67.53;33.63;;;3.00;1.00;;;;;;5075832;28;20233;-61
2022/01/11 05:27:08;;;;;;;75.20;34.77;;;;;;;;;;5077615;28;20446;-62
2022/01/11 05:29:35;;;;;;;64.53;31.90;;;3.10;1.00;;;;;;5075677;28;20193;-60
2022/01/11 05:32:03;;;;;;;66.97;33.00;;;3.10;1.00;;;;;;5075409;28;20446;-61
2022/01/11 05:34:28;;;;;;;69.37;34.73;;;3.10;1.00;;;;;;5072085;28;20446;-61
2022/01/11 05:36:54;;;;;;;68.60;33.50;;;;;;;;;;5074490;28;20475;-61
2022/01/11 05:39:20;;;;;;;68.60;32.63;;;3.10;1.00;;;;;;5074487;28;20268;-61
2022/01/11 05:41:46;;;;;;;65.30;29.00;;;3.00;1.00;;;;;;5076625;28;20480;-60
2022/01/11 05:44:12;;;;;;;61.23;30.67;;;2.90;1.00;;;;;;5060112;28;20466;-60
2022/01/11 05:46:38;;;;;;;57.60;27.87;;;;;;;;;;5071518;28;20191;-61
2022/01/11 05:49:03;;;;;;;58.43;30.37;;;;;;;;;;5073098;28;20266;-61
2022/01/11 05:51:29;;;;;;;58.40;30.10;;;2.80;1.00;;;;;;5074802;28;21134;-59
2022/01/11 05:53:55;;;;;;;53.87;28.13;;;2.80;1.00;;;;;;5073709;28;20453;-61
2022/01/11 05:56:21;;;;;;;58.63;27.20;;;2.80;1.00;;;;;;5080533;28;20175;-61
2022/01/11 05:58:47;;;;;;;60.77;28.23;;;2.80;1.00;;;;;;5073832;28;20431;-61
2022/01/11 06:01:14;;;;;;;57.97;28.00;;;2.80;1.00;;;;;;5080140;28;20515;-60
2022/01/11 06:03:40;;;;;;;59.83;28.47;;;2.80;1.00;;;;;;5055680;28;20859;-61
2022/01/11 06:06:06;;;;;;;57.93;27.47;;;2.80;1.00;;;;;;5070954;28;20438;-62
2022/01/11 06:08:32;;;;;;;62.23;27.73;;;2.90;1.00;;;;;;5068446;28;20448;-60
2022/01/11 06:10:57;;;;;;;48.27;25.43;;;2.90;1.00;;;;;;5069309;28;20181;-61
2022/01/11 06:13:23;;;;;;;53.40;27.87;;;;;;;;;;5076438;28;20702;-60
2022/01/11 06:15:50;;;;;;;56.40;26.43;;;2.80;1.00;;;;;;5070515;28;20258;-61
2022/01/11 06:18:16;;;;;;;51.73;27.17;;;2.80;1.00;;;;;;5075077;28;20478;-62
2022/01/11 06:20:42;;;;;;;53.70;26.57;;;2.70;1.00;;;;;;5071198;28;20472;-61
2022/01/11 06:23:08;;;;;;;53.00;25.07;;;;;;;;;;5068836;28;20466;-61
2022/01/11 06:25:34;;;;;;;52.23;26.40;;;;;;;;;;5070859;28;20181;-61
2022/01/11 06:27:59;;;;;;;57.43;28.33;;;2.70;1.00;;;;;;5080820;28;20445;-60
2022/01/11 06:30:25;;;;;;;62.83;28.97;;;2.90;1.00;;;;;;5076290;28;20460;-61
2022/01/11 06:32:51;;;;;;;49.67;24.37;;;;;;;;;;5073651;28;20688;-61
2022/01/11 06:35:18;;;;;;;53.63;27.93;;;2.70;1.00;;;;;;5077811;28;20560;-61
2022/01/11 06:37:44;;;;;;;49.87;29.27;;;2.60;1.00;;;;;;5081127;28;20477;-60
2022/01/11 06:40:12;;;;;;;52.70;26.27;;;2.50;1.00;;;;;;5073661;28;20440;-61
2022/01/11 06:42:38;;;;;;;50.77;27.43;;;2.50;1.00;;;;;;5076961;28;20530;-61
2022/01/11 06:45:05;;;;;;;51.10;26.83;;;2.60;1.00;;;;;;5086990;28;20940;-60
2022/01/11 06:47:31;;;;;;;62.43;30.50;;;2.60;1.00;;;;;;5072838;28;20649;-60
2022/01/11 06:49:57;;;;;;;65.70;30.70;;;;;;;;;;5068368;28;20436;-61
2022/01/11 06:52:22;;;;;;;57.07;28.07;;;2.60;1.00;;;;;;5076336;28;20202;-61
2022/01/11 06:54:48;;;;;;;55.50;27.20;;;2.70;1.00;;;;;;5070425;28;20475;-61
2022/01/11 06:57:14;;;;;;;64.17;29.00;;;2.90;1.00;;;;;;5062166;28;20542;-62
2022/01/11 06:59:39;;;;;;;59.23;27.40;;;2.90;1.00;;;;;;5081628;28;20522;-60
2022/01/11 07:02:05;;;;;;;51.43;27.00;;;2.90;1.00;;;;;;5094628;28;20563;-61
2022/01/11 07:04:31;;;;;;;57.03;28.27;;;2.90;1.00;;;;;;5079964;28;20545;-61
2022/01/11 07:06:57;;;;;;;58.77;30.37;;;;;;;;;;5071136;28;20453;-61
2022/01/11 07:09:23;;;;;;;59.90;28.20;;;;;;;;;;5073619;28;20453;-60
2022/01/11 07:11:50;;;;;;;57.97;26.87;;;;;;;;;;5077693;28;20854;-62
2022/01/11 07:14:15;;;;;;;60.27;29.30;;;3.00;1.00;;;;;;5072897;28;20445;-60
2022/01/11 07:16:43;;;;;;;59.97;30.13;;;;;;;;;;5056899;28;20441;-61
2022/01/11 07:19:10;;;;;;;53.40;28.17;;;3.10;1.00;;;;;;5077905;28;20225;-60
2022/01/11 07:21:35;;;;;;;52.43;26.53;;;2.90;1.00;;;;;;5074122;28;20434;-61
2022/01/11 07:24:02;;;;;;;45.83;23.27;;;2.80;1.00;;;;;;5072848;28;20824;-62
2022/01/11 07:26:27;;;;;;;47.50;24.37;;;2.70;1.00;;;;;;5072878;28;20182;-61
2022/01/11 07:28:53;;;;;;;49.10;24.23;;;2.60;1.00;;;;;;5073996;28;20441;-62
2022/01/11 07:31:18;;;;;;;50.27;24.37;;;2.50;1.00;;;;;;5075940;28;20183;-61
2022/01/11 07:33:45;;;;;;;44.67;22.87;;;2.50;1.00;;;;;;5074702;28;20208;-61
2022/01/11 07:36:11;;;;;;;49.83;24.67;;;;;;;;;;5073179;28;20202;-60
2022/01/11 07:38:37;;;;;;;48.80;25.57;;;2.10;1.00;;;;;;5082369;28;20517;-61
2022/01/11 07:41:05;;;;;;;46.93;23.10;;;;;;;;;;5076570;28;20442;-60
2022/01/11 07:43:30;;;;;;;42.97;22.97;;;2.00;1.00;;;;;;5081676;28;20276;-60
2022/01/11 07:45:56;;;;;;;52.07;25.17;;;2.00;1.00;;;;;;5054797;28;20446;-60
2022/01/11 07:48:22;;;;;;;53.37;25.13;;;;;;;;;;5092593;28;20345;-61
2022/01/11 07:50:47;;;;;;;45.20;23.67;;;1.90;1.00;;;;;;5075885;28;20183;-61
2022/01/11 07:53:13;;;;;;;53.10;23.47;;;2.00;1.00;;;;;;5085325;28;20453;-61
2022/01/11 07:55:39;;;;;;;51.40;22.70;;;;;;;;;;5084858;28;20328;-61
2022/01/11 07:58:04;;;;;;;47.57;22.30;;;1.90;1.00;;;;;;5081044;28;20244;-61
2022/01/11 08:00:31;;;;;;;45.70;22.30;;;1.90;1.00;;;;;;5075165;28;20767;-62
2022/01/11 08:02:57;;;;;;;49.80;24.50;;;1.90;1.00;;;;;;5061498;28;20172;-61
2022/01/11 08:05:22;;;;;;;49.33;24.07;;;2.00;1.00;;;;;;5070659;28;20452;-61
2022/01/11 08:07:49;;;;;;;42.43;22.20;;;1.90;1.00;;;;;;5075556;28;20183;-61
2022/01/11 08:10:18;;;;;;;42.60;16.10;;;1.80;1.00;;;;;;5075464;28;20590;-62
2022/01/11 08:12:44;;;;;;;41.93;21.93;;;1.70;1.00;;;;;;5078984;28;20448;-60
2022/01/11 08:15:10;;;;;;;45.00;23.47;;;;;;;;;;5075696;28;20838;-61
2022/01/11 08:17:36;;;;;;;50.93;24.40;;;1.90;1.00;;;;;;5072434;28;20479;-61
2022/01/11 08:20:02;;;;;;;42.20;23.60;;;2.10;1.00;;;;;;5071154;28;20430;-61
2022/01/11 08:22:28;;;;;;;44.60;22.03;;;;;;;;;;5074062;28;20257;-61
2022/01/11 08:24:54;;;;;;;40.37;22.77;;;2.40;1.00;;;;;;5080813;28;20536;-59
2022/01/11 08:27:22;;;;;;;51.20;24.93;;;2.60;1.00;;;;;;5070706;28;20454;-61
2022/01/11 08:29:48;;;;;;;45.13;23.70;;;2.60;1.00;;;;;;5076012;28;20230;-61
2022/01/11 08:32:14;;;;;;;47.87;24.10;;;2.60;1.00;;;;;;5089847;28;20957;-61
2022/01/11 08:34:40;;;;;;;49.37;23.30;;;2.60;1.00;;;;;;5085471;28;20442;-61
2022/01/11 08:37:06;;;;;;;48.20;21.70;;;;;;;;;;5083335;28;20209;-60
2022/01/11 08:39:32;;;;;;;45.10;22.30;;;2.60;1.00;;;;;;5079485;28;20950;-62
2022/01/11 08:41:58;;;;;;;44.83;24.40;;;;;;;;;;5085056;28;20449;-61
2022/01/11 08:44:24;;;;;;;47.17;24.13;;;;;;;;;;5084708;28;20236;-61
2022/01/11 08:46:50;;;;;;;36.07;21.13;;;2.80;1.00;;;;;;5074150;28;20420;-62
2022/01/11 08:49:17;;;;;;;44.67;22.33;;;2.90;1.00;;;;;;5074512;28;20522;-61
2022/01/11 08:51:43;;;;;;;42.53;22.53;;;2.80;1.00;;;;;;5070475;28;20436;-62
2022/01/11 08:54:11;;;;;;;45.30;20.57;;;2.80;1.00;;;;;;5085736;28;20443;-62
2022/01/11 08:56:37;;;;;;;42.67;21.50;;;2.80;1.00;;;;;;5099127;28;20860;-63
2022/01/11 08:59:03;;;;;;;44.70;21.27;;;2.80;1.00;;;;;;5079700;28;20449;-62
2022/01/11 09:01:31;;;;;;;41.33;20.97;;;2.90;1.00;;;;;;5082540;28;20852;-62
2022/01/11 09:03:57;;;;;;;46.07;20.17;;;2.90;1.00;;;;;;5078536;28;20209;-62
2022/01/11 09:06:23;;;;;;;39.57;20.47;;;2.80;1.00;;;;;;5077810;28;20938;-62
2022/01/11 09:08:49;;;;;;;42.13;22.17;;;2.90;1.00;;;;;;5062637;28;20452;-60
2022/01/11 09:11:15;;;;;;;38.67;19.07;;;3.00;1.00;;;;;;5076066;28;20234;-61
2022/01/11 09:13:40;;;;;;;42.00;19.87;;;3.10;1.00;;;;;;5086201;28;20441;-61
2022/01/11 09:16:07;;;;;;;41.93;21.63;;;3.00;1.00;;;;;;5083689;28;20188;-61
2022/01/11 09:18:32;;;;;;;44.90;21.63;;;3.00;1.00;;;;;;5074520;28;20278;-62
2022/01/11 09:21:00;;;;;;;40.87;21.33;;;2.90;1.00;;;;;;5079926;28;20478;-62
2022/01/11 09:23:30;;;;;;;45.17;20.33;;;2.80;1.00;;;;;;5055588;28;20207;-61
2022/01/11 09:25:56;;;;;;;39.20;20.50;;;2.80;1.00;;;;;;5070344;28;20401;-62
2022/01/11 09:28:22;;;;;;;46.90;22.50;;;;;;;;;;5073033;28;20435;-62
2022/01/11 09:30:49;;;;;;;49.83;22.17;;;;;;;;;;5071278;28;20878;-62
2022/01/11 09:33:14;;;;;;;36.80;20.00;;;2.90;1.00;;;;;;5071313;28;20853;-62
2022/01/11 09:35:40;;;;;;;41.67;21.83;;;2.80;1.00;;;;;;5080050;28;20478;-61
2022/01/11 09:38:05;;;;;;;42.00;23.00;;;2.90;1.00;;;;;;5077457;28;20257;-62
2022/01/11 09:40:32;;;;;;;46.40;20.00;;;;;;;;;;5082342;28;20187;-62
2022/01/11 09:42:57;;;;;;;38.97;20.93;;;3.00;1.00;;;;;;5077220;28;20633;-62
2022/01/11 09:45:23;;;;;;;44.53;21.53;;;;;;;;;;5075026;28;20441;-61
2022/01/11 09:47:49;;;;;;;45.57;24.57;;;3.00;1.00;;;;;;5072147;28;20446;-62
2022/01/11 09:50:16;;;;;;;43.50;21.00;;;2.90;1.00;;;;;;5077915;28;20479;-61
2022/01/11 09:52:42;;;;;;;40.90;22.40;;;2.80;1.00;;;;;;5079213;28;20179;-61
2022/01/11 09:55:11;;;;;;;56.90;23.67;;;2.70;1.00;;;;;;5094210;28;20476;-61
2022/01/11 09:57:37;;;;;;;37.80;22.00;;;2.50;1.00;;;;;;5079492;28;20207;-59
2022/01/11 10:00:06;;;;;;;44.57;23.93;;;2.30;1.00;;;;;;5080224;28;20432;-61
2022/01/11 10:02:32;;;;;;;46.07;21.40;;;2.30;1.00;;;;;;5055668;28;20490;-61
2022/01/11 10:05:01;;;;;;;45.50;22.27;;;2.10;1.00;;;;;;5080312;28;20519;-61
2022/01/11 10:07:37;;;;;;;48.23;21.63;;;3.50;1.00;;;;;;5051860;28;20195;-61
2022/01/11 10:10:04;;;;;;;38.80;20.70;;;2.40;1.00;;;;;;5077391;28;20966;-61
2022/01/11 10:13:04;;;;;;;53.23;22.73;;;2.60;1.00;;;;;;5080223;28;20799;-61
2022/01/11 10:15:39;;;;;;;40.17;21.73;;;2.80;1.00;;;;;;5054284;28;20433;-61
2022/01/11 10:18:06;;;;;;;45.53;22.10;;;2.90;1.00;;;;;;5080689;28;20468;-60
2022/01/11 10:20:34;;;;;;;45.70;21.47;;;3.10;1.00;;;;;;5073492;28;20784;-61
2022/01/11 10:23:03;;;;;;;45.60;22.77;;;3.10;1.00;;;;;;5077415;28;20449;-61
2022/01/11 10:25:31;;;;;;;47.50;22.97;;;3.00;1.00;;;;;;5084627;28;20445;-61
2022/01/11 10:27:59;;;;;;;36.87;21.70;;;3.20;1.00;;;;;;5079398;28;20463;-61
2022/01/11 10:30:26;;;;;;;38.47;20.53;;;3.30;1.00;;;;;;5057705;28;21003;-63
2022/01/11 10:32:57;;;;;;;47.20;23.20;;;3.40;1.00;;;;;;5074472;28;20444;-61
2022/01/11 10:35:29;;;;;;;48.53;21.63;;;3.50;1.00;;;;;;5052043;28;20437;-61
2022/01/11 10:37:56;;;;;;;41.83;22.37;;;3.40;1.00;;;;;;5084327;28;20471;-61
2022/01/11 10:40:36;;;;;;;43.13;22.00;;;3.20;1.00;;;;;;5073445;28;20440;-61
2022/01/11 10:43:07;;;;;;;47.47;23.13;;;3.20;1.00;;;;;;5067805;28;20436;-60
2022/01/11 10:45:44;;;;;;;54.67;23.73;;;3.20;1.00;;;;;;5074383;28;20458;-61
2022/01/11 10:48:13;;;;;;;42.57;22.90;;;3.40;1.00;;;;;;5075677;28;20491;-61
2022/01/11 10:50:44;;;;;;;43.30;22.57;;;3.60;1.00;;;;;;5070406;28;20536;-60
2022/01/11 10:53:14;;;;;;;41.40;22.00;;;3.60;1.00;;;;;;5073445;28;20450;-61
2022/01/11 10:55:41;;;;;;;45.70;22.40;;;3.70;1.00;;;;;;5077907;28;20458;-60
2022/01/11 10:58:09;;;;;;;51.73;25.83;;;3.80;1.00;;;;;;5086834;28;20491;-61
2022/01/11 11:00:36;;;;;;;41.47;21.60;;;3.60;1.00;;;;;;5088196;28;20960;-60
2022/01/11 11:03:12;;;;;;;44.23;23.60;;;3.80;1.00;;;;;;5088949;28;20933;-62
2022/01/11 11:05:55;;;;;;;37.67;21.77;;;3.90;1.00;;;;;;5072422;28;20445;-61
2022/01/11 11:08:24;;;;;;;42.83;22.03;;;3.90;1.00;;;;;;5080854;28;20453;-62
2022/01/11 11:10:56;;;;;;;40.00;22.73;;;3.80;1.00;;;;;;5088680;28;20437;-61
2022/01/11 11:13:27;;;;;;;47.57;23.27;;;3.70;1.00;;;;;;5079741;28;20430;-61
2022/01/11 11:15:55;;;;;;;44.93;23.10;;;3.60;1.00;;;;;;5080931;28;20447;-61
2022/01/11 11:18:33;;;;;;;44.50;23.40;;;3.60;1.00;;;;;;5093123;28;20609;-61
2022/01/11 11:21:25;;;;;;;40.00;23.03;;;3.50;1.00;;;;;;5075046;28;20446;-61
2022/01/11 11:23:56;;;;;;;53.10;26.00;;;3.60;1.00;;;;;;5071149;28;20497;-61
2022/01/11 11:26:29;;;;;;;51.57;24.87;;;3.60;1.00;;;;;;5078702;28;20445;-62
2022/01/11 11:28:55;;;;;;;51.37;26.90;;;3.60;1.00;;;;;;5069536;28;20450;-62
2022/01/11 11:31:21;;;;;;;42.10;23.80;;;3.60;1.00;;;;;;5079428;28;20442;-61
2022/01/11 11:33:47;;;;;;;42.07;24.27;;;;;;;;;;5082838;28;20452;-60
2022/01/11 11:36:15;;;;;;;51.23;25.43;;;3.70;1.00;;;;;;5086763;28;20504;-61
2022/01/11 11:39:03;;;;;;;46.63;22.70;;;3.80;1.00;;;;;;5086163;28;20513;-61
2022/01/11 11:41:30;;;;;;;55.83;25.03;;;3.80;1.00;;;;;;5086635;28;20528;-61
2022/01/11 11:44:12;;;;;;;48.33;23.63;;;3.90;1.00;;;;;;5082929;28;20440;-61
2022/01/11 11:46:43;;;;;;;39.33;21.67;;;3.90;1.00;;;;;;5087763;28;20443;-61
2022/01/11 11:49:11;;;;;;;45.70;23.90;;;3.80;1.00;;;;;;5082587;28;20429;-61
2022/01/11 11:51:42;;;;;;;45.90;23.40;;;3.80;1.00;;;;;;5087258;28;20440;-61
2022/01/11 11:54:13;;;;;;;47.90;24.10;;;3.80;1.00;;;;;;5060972;28;20444;-61
2022/01/11 11:56:39;;;;;;;42.57;22.10;;;;;;;;;;5086448;28;20496;-61
2022/01/11 11:59:09;;;;;;;50.47;25.90;;;3.90;1.00;;;;;;5081638;28;20491;-61
2022/01/11 12:01:45;;;;;;;41.40;23.07;;;3.80;1.00;;;;;;5089195;28;20440;-61
2022/01/11 12:04:13;;;;;;;49.70;23.20;;;3.80;1.00;;;;;;5087726;28;20991;-61
2022/01/11 12:06:40;;;;;;;52.27;25.13;;;3.90;1.00;;;;;;5079747;28;20462;-61
2022/01/11 12:09:09;;;;;;;39.00;21.30;;;3.90;1.00;;;;;;5059063;28;20578;-61
2022/01/11 12:11:43;;;;;;;45.43;24.20;;;3.90;1.00;;;;;;5085150;28;20429;-61
2022/01/11 12:14:32;;;;;;;47.37;23.20;;;3.70;1.00;;;;;;5077084;28;20752;-61
2022/01/11 12:17:23;;;;;;;44.40;22.90;;;3.80;1.00;;;;;;5081049;28;20438;-61
2022/01/11 12:19:49;;;;;;;43.67;22.77;;;3.90;1.00;;;;;;5066747;28;20520;-61
2022/01/11 12:22:17;;;;;;;44.80;22.20;;;3.90;1.00;;;;;;5086200;28;20771;-61
2022/01/11 12:24:46;;;;;;;43.57;23.53;;;3.80;1.00;;;;;;5078860;28;20468;-61
2022/01/11 12:27:14;;;;;;;44.73;22.53;;;3.60;1.00;;;;;;5086044;28;20759;-61
2022/01/11 12:29:58;;;;;;;40.40;21.20;;;3.70;1.00;;;;;;5061516;28;20442;-61
2022/01/11 12:32:26;;;;;;;42.40;21.80;;;3.70;1.00;;;;;;5075741;28;20433;-61
2022/01/11 12:34:56;;;;;;;42.37;22.50;;;3.90;1.00;;;;;;5071672;28;20933;-60
2022/01/11 12:37:21;;;;;;;46.80;23.20;;;4.00;1.00;;;;;;5080832;28;20521;-61
2022/01/11 12:40:22;;;;;;;41.53;22.23;;;3.90;1.00;;;;;;5073627;28;20964;-61
2022/01/11 12:42:54;;;;;;;43.10;22.10;;;3.80;1.00;;;;;;5082587;28;20178;-61
2022/01/11 12:46:01;;;;;;;44.10;22.93;;;3.80;1.00;;;;;;5088834;28;20535;-60
2022/01/11 12:48:48;;;;;;;44.07;23.30;;;3.90;1.00;;;;;;5082946;28;20529;-61
2022/01/11 12:51:40;;;;;;;42.63;22.33;;;3.80;1.00;;;;;;5068822;28;20481;-60
2022/01/11 12:54:32;;;;;;;49.20;24.90;;;3.80;1.00;;;;;;5065970;28;20482;-61
2022/01/11 12:57:01;;;;;;;53.10;24.00;;;3.90;1.00;;;;;;5080502;28;20448;-60
2022/01/11 12:59:30;;;;;;;38.20;21.40;;;3.90;1.00;;;;;;5077938;28;20403;-60
2022/01/11 13:02:06;;;;;;;46.33;23.90;;;3.70;1.00;;;;;;5072387;28;20487;-61
2022/01/11 13:04:56;;;;;;;40.30;22.20;;;3.80;1.00;;;;;;5083153;28;20481;-61
2022/01/11 13:07:30;;;;;;;42.67;22.10;;;3.60;1.00;;;;;;5083355;28;20415;-61